Terminal Aerodrome Forecast
Issued by NWS

Home | Current Version | Previous Version | Text Only | Print | Product List | Glossary On
Versions: 1 2 3 4 5 6 7 8 9 10 11 12 13 14 15 16 17 18 19 20
000
FTUS46 KSEW 300500
TAFPAE
TAF
KPAE 300520Z 3006/3106 01007KT P6SM SCT250
     FM301000 VRB03KT 3SM BR OVC005
     FM301900 24006KT P6SM FEW012 SCT250
     FM302100 30006KT P6SM SCT250
     FM310300 VRB03KT P6SM SCT250=

USA.gov is the U.S. government's official web portal to all federal, state and local government web resources and services.